Time;durP1;ratioP1;P1;durP2;ratioP2;P2;SDS_P1;SDS_P2;PMS_P1;PMS_P2;Temp;Humidity;BMP_temperature;BMP_pressure;BME280_temperature;BME280_humidity;BME280_pressure;Samples;Min_cycle;Max_cycle;Signal;HPM_P1;HPM_P2
2020/12/04 00:02:19;;;;;;;14.25;8.13;;;;;;;2.63;89.16;97903.47;10492859;28;20052;-71
2020/12/04 00:07:20;;;;;;;17.67;9.25;;;;;;;2.73;87.77;97891.63;10493486;28;20053;-71
2020/12/04 00:12:21;;;;;;;15.98;9.35;;;;;;;2.72;89.84;97888.22;10492681;28;20488;-71
2020/12/04 00:17:22;;;;;;;16.67;9.00;;;;;;;2.72;88.88;97872.72;10492955;28;20413;-71
2020/12/04 00:22:23;;;;;;;18.95;9.00;;;;;;;2.73;86.85;97858.88;10492741;28;20052;-71
2020/12/04 00:27:24;;;;;;;17.13;9.48;;;;;;;2.79;88.14;97855.09;10474932;28;20052;-71
2020/12/04 00:32:25;;;;;;;16.23;9.10;;;;;;;2.79;87.69;97830.09;10491135;28;20056;-71
2020/12/04 00:37:26;;;;;;;15.95;9.18;;;;;;;2.68;89.37;97826.53;10474696;28;20507;-70
2020/12/04 00:42:27;;;;;;;16.95;8.40;;;;;;;2.55;91.67;97805.81;10492381;28;20511;-70
2020/12/04 00:47:27;;;;;;;16.50;8.57;;;;;;;2.51;91.19;97799.19;10491668;28;20132;-71
2020/12/04 00:52:32;;;;;;;16.83;8.65;;;;;;;2.62;90.76;97808.84;10473759;28;20052;-71
2020/12/04 00:57:32;;;;;;;15.20;8.07;;;;;;;2.63;89.62;97797.59;10491623;28;20044;-70
2020/12/04 01:02:33;;;;;;;16.23;8.52;;;;;;;2.73;89.36;97783.16;10490912;28;20056;-70
2020/12/04 01:07:34;;;;;;;15.07;8.65;;;;;;;2.76;89.26;97764.88;10474028;28;20047;-71
2020/12/04 01:12:35;;;;;;;14.73;7.70;;;;;;;2.89;85.75;97758.84;10490859;28;20054;-71
2020/12/04 01:17:36;;;;;;;13.32;7.53;;;;;;;2.88;89.26;97746.84;10473626;28;20041;-71
2020/12/04 01:22:37;;;;;;;13.65;7.85;;;;;;;2.83;90.48;97750.66;10489904;28;20102;-71
2020/12/04 01:27:38;;;;;;;14.90;7.90;;;;;;;2.86;89.92;97745.28;10490683;28;20465;-71
2020/12/04 01:32:39;;;;;;;14.90;7.15;;;;;;;2.88;91.79;97735.69;10489793;28;20392;-70
2020/12/04 01:37:41;;;;;;;12.38;6.78;;;;;;;2.70;96.10;97742.84;10472362;28;20389;-70
2020/12/04 01:42:42;;;;;;;13.80;7.55;;;;;;;2.56;96.97;97730.00;10490469;28;20106;-70
2020/12/04 01:47:43;;;;;;;13.05;7.25;;;;;;;2.56;97.80;97728.25;10490214;28;20542;-70
2020/12/04 01:52:44;;;;;;;12.93;6.82;;;;;;;2.49;98.70;97724.41;10490244;28;20446;-70
2020/12/04 01:57:46;;;;;;;12.60;6.97;;;;;;;2.54;99.28;97730.09;10492465;28;20055;-70
2020/12/04 02:02:48;;;;;;;13.95;7.28;;;;;;;2.57;99.65;97735.09;10489724;28;20053;-70
2020/12/04 02:07:59;;;;;;;13.80;7.72;;;;;;;2.50;100.00;97726.06;10471893;28;20052;-70
2020/12/04 02:13:01;;;;;;;12.45;6.55;;;;;;;2.41;100.00;97711.19;10490050;28;20052;-70
2020/12/04 02:18:04;;;;;;;11.45;6.43;;;;;;;2.36;100.00;97720.97;10490219;28;20041;-70
2020/12/04 02:23:05;;;;;;;15.40;6.53;;;;;;;2.48;100.00;97712.47;10489839;28;20130;-70
2020/12/04 02:28:06;;;;;;;13.55;6.93;;;;;;;2.43;99.76;97706.75;10489679;28;20047;-70
2020/12/04 02:33:07;;;;;;;14.82;7.53;;;;;;;2.48;100.00;97711.63;10471186;28;20048;-70
2020/12/04 02:38:07;;;;;;;14.60;6.90;;;;;;;2.51;100.00;97701.09;10497106;28;20055;-70
2020/12/04 02:43:08;;;;;;;12.10;6.55;;;;;;;2.49;99.12;97716.66;10496832;28;20261;-72
2020/12/04 02:48:10;;;;;;;13.27;6.28;;;;;;;2.69;97.86;97715.41;10496285;28;20044;-72
2020/12/04 02:53:11;;;;;;;13.38;7.45;;;;;;;2.72;98.83;97730.69;10496713;28;20048;-72
2020/12/04 02:58:12;;;;;;;13.80;6.90;;;;;;;2.73;100.00;97710.84;10495951;28;20091;-72
2020/12/04 03:03:13;;;;;;;14.55;8.43;;;;;;;2.75;99.43;97690.91;10477472;28;20518;-72
2020/12/04 03:08:14;;;;;;;14.40;7.85;;;;;;;2.79;98.99;97688.03;10495837;28;20048;-72
2020/12/04 03:13:15;;;;;;;12.52;7.07;;;;;;;2.87;100.00;97692.69;10495296;28;20562;-72
2020/12/04 03:18:16;;;;;;;13.05;7.13;;;;;;;3.03;99.57;97690.75;10495643;28;20045;-71
2020/12/04 03:23:17;;;;;;;12.85;7.07;;;;;;;2.99;100.00;97681.53;10495426;28;20052;-71
2020/12/04 03:28:18;;;;;;;12.18;6.35;;;;;;;3.06;100.00;97697.44;10495583;28;20465;-71
2020/12/04 03:33:19;;;;;;;13.43;6.78;;;;;;;3.27;99.53;97681.31;10522802;28;20058;-71
2020/12/04 03:38:20;;;;;;;7.90;3.00;;;;;;;3.92;94.17;97713.88;10536507;28;20089;-71
2020/12/04 03:43:21;;;;;;;6.63;3.10;;;;;;;4.29;91.16;97702.56;10536239;28;20135;-72
2020/12/04 03:48:22;;;;;;;9.85;3.97;;;;;;;4.23;92.40;97705.59;10535038;28;20408;-71
2020/12/04 03:53:22;;;;;;;7.82;3.95;;;;;;;4.14;93.34;97675.19;10536096;28;20113;-71
2020/12/04 03:58:23;;;;;;;8.48;4.50;;;;;;;4.13;94.41;97676.97;10517757;28;20138;-71
2020/12/04 04:03:24;;;;;;;6.60;3.53;;;;;;;4.03;93.04;97680.31;10532798;28;20055;-71
2020/12/04 04:08:25;;;;;;;8.68;4.50;;;;;;;4.01;94.06;97677.03;10535487;28;20044;-72
2020/12/04 04:13:26;;;;;;;7.38;4.50;;;;;;;3.93;95.05;97674.97;10517112;28;20614;-72
2020/12/04 04:18:27;;;;;;;7.57;4.30;;;;;;;3.86;96.17;97669.41;10517249;28;20048;-72
2020/12/04 04:23:28;;;;;;;10.70;5.22;;;;;;;3.84;94.23;97660.94;10534620;28;20048;-72
2020/12/04 04:28:30;;;;;;;13.43;7.65;;;;;;;3.90;95.70;97679.53;10534308;28;20046;-72
2020/12/04 04:33:31;;;;;;;10.45;5.03;;;;;;;3.89;93.81;97678.72;10533977;28;20048;-72
2020/12/04 04:38:32;;;;;;;8.65;4.70;;;;;;;3.90;94.23;97685.53;10534316;28;20188;-72
2020/12/04 04:43:33;;;;;;;10.52;6.18;;;;;;;3.95;93.40;97678.28;10534495;28;20238;-71
2020/12/04 04:48:35;;;;;;;15.32;5.95;;;;;;;3.87;94.19;97677.97;10534038;28;20044;-72
2020/12/04 04:53:36;;;;;;;10.02;5.55;;;;;;;3.84;93.97;97673.03;10533780;28;20101;-71
2020/12/04 04:58:37;;;;;;;11.20;6.15;;;;;;;3.80;95.02;97687.97;10533510;28;20048;-71
2020/12/04 05:03:38;;;;;;;9.82;5.57;;;;;;;3.75;95.90;97689.22;10532050;28;20630;-71
2020/12/04 05:08:39;;;;;;;13.50;6.72;;;;;;;3.73;96.22;97686.72;10533188;28;20040;-72
2020/12/04 05:13:40;;;;;;;14.13;7.28;;;;;;;3.76;97.12;97688.25;10532737;28;20051;-71
2020/12/04 05:18:40;;;;;;;11.50;6.72;;;;;;;3.85;93.66;97683.28;10532922;28;20513;-71
2020/12/04 05:23:53;;;;;;;12.20;6.25;;;;;;;3.92;91.04;97683.66;10532471;28;20048;-71
2020/12/04 05:28:54;;;;;;;14.57;7.68;;;;;;;3.93;91.10;97680.16;10532055;28;20044;-71
2020/12/04 05:33:56;;;;;;;20.65;9.70;;;;;;;3.99;90.95;97677.13;10531389;28;20048;-71
2020/12/04 05:38:57;;;;;;;11.60;6.65;;;;;;;4.07;91.32;97674.81;10532193;28;20052;-72
2020/12/04 05:43:58;;;;;;;10.32;6.07;;;;;;;4.02;91.26;97671.72;10532168;28;20097;-72
2020/12/04 05:49:08;;;;;;;11.45;5.78;;;;;;;4.07;91.05;97673.97;10532368;28;20063;-72
2020/12/04 05:54:10;;;;;;;11.60;6.68;;;;;;;4.07;92.12;97677.41;10532620;28;20056;-72
2020/12/04 05:59:16;;;;;;;11.10;6.53;;;;;;;4.05;94.64;97663.75;10529228;28;20525;-72
2020/12/04 06:04:18;;;;;;;13.32;7.78;;;;;;;3.85;99.45;97662.59;10530889;28;20499;-72
2020/12/04 06:09:21;;;;;;;14.60;7.57;;;;;;;3.76;100.00;97658.03;10534278;28;20146;-71
2020/12/04 06:14:22;;;;;;;16.70;9.05;;;;;;;3.65;100.00;97664.94;10539744;28;20388;-72
2020/12/04 06:19:31;;;;;;;13.93;9.00;;;;;;;3.61;100.00;97668.63;10539913;28;20090;-72
2020/12/04 06:24:55;;;;;;;13.02;7.55;;;;;;;3.56;100.00;97668.13;10539758;28;20105;-72
2020/12/04 06:29:56;;;;;;;14.25;8.13;;;;;;;3.58;100.00;97659.34;10538570;28;20446;-72
2020/12/04 06:34:57;;;;;;;13.55;8.40;;;;;;;3.52;100.00;97658.94;10520032;28;20048;-72
2020/12/04 06:40:30;;;;;;;32.72;12.00;;;;;;;3.43;100.00;97660.41;10539125;28;20052;-71
2020/12/04 06:45:49;;;;;;;15.88;9.93;;;;;;;3.47;100.00;97650.69;10538921;28;20056;-72
2020/12/04 06:50:50;;;;;;;18.38;11.63;;;;;;;3.47;100.00;97659.25;10538318;28;20050;-72
2020/12/04 06:55:51;;;;;;;17.13;10.13;;;;;;;3.48;100.00;97662.69;10538274;28;20059;-72
2020/12/04 07:00:56;;;;;;;14.60;9.43;;;;;;;3.51;100.00;97670.22;10537467;28;20047;-72
2020/12/04 07:05:57;;;;;;;17.55;10.18;;;;;;;3.58;100.00;97674.88;10518009;28;20052;-72
2020/12/04 07:10:57;;;;;;;17.92;10.45;;;;;;;3.55;100.00;97669.09;10503522;28;20098;-72
2020/12/04 07:15:58;;;;;;;17.15;10.55;;;;;;;3.59;100.00;97680.88;10537207;28;20106;-71
2020/12/04 07:20:59;;;;;;;18.40;10.88;;;;;;;3.55;100.00;97676.84;10524505;28;20052;-72
2020/12/04 07:26:04;;;;;;;19.80;11.00;;;;;;;3.54;100.00;97677.78;10495820;28;20098;-72
2020/12/04 07:31:17;;;;;;;20.40;13.75;;;;;;;3.56;100.00;97678.47;10494201;28;20045;-73
2020/12/04 07:36:18;;;;;;;20.55;12.20;;;;;;;3.58;100.00;97685.22;10495663;28;20044;-72
2020/12/04 07:41:23;;;;;;;20.05;11.38;;;;;;;3.66;100.00;97692.41;10533453;28;20469;-72
2020/12/04 07:46:24;;;;;;;23.08;12.70;;;;;;;3.70;100.00;97691.28;10536767;28;20446;-71
2020/12/04 07:51:26;;;;;;;21.92;12.85;;;;;;;3.65;100.00;97686.44;10536342;28;20576;-71
2020/12/04 07:56:28;;;;;;;23.75;12.10;;;;;;;3.66;100.00;97695.84;10533296;28;20113;-71
2020/12/04 08:01:30;;;;;;;24.90;15.40;;;;;;;3.74;100.00;97695.31;10512905;28;20114;-71
2020/12/04 08:06:31;;;;;;;20.90;13.32;;;;;;;3.68;100.00;97690.56;10499664;28;20045;-71
2020/12/04 08:11:46;;;;;;;21.52;14.88;;;;;;;3.80;100.00;97687.97;10482609;28;20051;-71
2020/12/04 08:16:47;;;;;;;21.10;12.45;;;;;;;3.82;100.00;97693.00;10536177;28;20040;-71
2020/12/04 08:21:55;;;;;;;20.88;12.00;;;;;;;3.86;100.00;97691.84;10535325;28;20048;-71
2020/12/04 08:27:01;;;;;;;20.95;12.18;;;;;;;3.98;100.00;97697.94;10498986;28;20533;-71
2020/12/04 08:32:11;;;;;;;17.92;10.30;;;;;;;4.01;100.00;97698.56;10512920;28;20044;-71
2020/12/04 08:37:13;;;;;;;21.25;11.70;;;;;;;4.10;100.00;97699.66;10514085;28;20093;-71
2020/12/04 08:42:20;;;;;;;21.13;11.80;;;;;;;4.13;100.00;97702.00;10511504;28;20048;-71
2020/12/04 08:47:41;;;;;;;17.65;9.98;;;;;;;4.30;100.00;97701.66;10511163;28;20093;-71
2020/12/04 08:52:54;;;;;;;18.90;11.55;;;;;;;4.27;100.00;97715.63;10511599;28;20133;-71
2020/12/04 08:57:56;;;;;;;18.70;10.15;;;;;;;4.29;100.00;97713.75;10511054;28;20101;-70
2020/12/04 09:02:57;;;;;;;19.20;10.25;;;;;;;4.22;100.00;97715.13;10512320;28;20695;-70
2020/12/04 09:07:57;;;;;;;17.10;9.68;;;;;;;4.15;100.00;97702.75;10510065;28;20043;-71
2020/12/04 09:12:58;;;;;;;17.70;9.68;;;;;;;4.17;100.00;97704.28;10509927;28;20216;-71
2020/12/04 09:18:00;;;;;;;17.73;9.18;;;;;;;4.22;100.00;97738.41;10533476;28;20097;-71
2020/12/04 09:23:01;;;;;;;17.75;9.73;;;;;;;4.28;100.00;97745.75;10532967;28;20048;-70
2020/12/04 09:28:02;;;;;;;24.38;14.20;;;;;;;4.35;100.00;97743.56;10533196;28;20491;-70
2020/12/04 09:33:03;;;;;;;25.55;15.10;;;;;;;4.36;100.00;97744.41;10532343;28;20058;-70
2020/12/04 09:38:04;;;;;;;17.73;11.15;;;;;;;4.42;100.00;97749.16;10508631;28;20058;-71
2020/12/04 09:43:05;;;;;;;21.73;12.25;;;;;;;4.45;100.00;97748.91;10529559;28;20044;-70
2020/12/04 09:48:06;;;;;;;20.67;12.55;;;;;;;4.51;100.00;97748.47;10520292;28;20063;-71
2020/12/04 09:53:07;;;;;;;20.95;11.55;;;;;;;4.56;100.00;97741.19;10535468;28;20052;-71
2020/12/04 09:58:09;;;;;;;16.70;9.38;;;;;;;4.52;100.00;97739.78;10541122;28;20415;-71
2020/12/04 10:03:10;;;;;;;17.75;10.00;;;;;;;4.57;100.00;97728.13;10539799;28;20550;-71
2020/12/04 10:08:10;;;;;;;16.75;9.43;;;;;;;4.77;100.00;97739.66;10540395;28;20048;-71
2020/12/04 10:13:11;;;;;;;13.18;6.78;;;;;;;4.77;100.00;97744.81;10522940;28;20052;-71
2020/12/04 10:18:12;;;;;;;16.38;8.68;;;;;;;4.82;100.00;97744.50;10498121;28;20045;-71
2020/12/04 10:23:13;;;;;;;15.68;9.05;;;;;;;4.68;100.00;97735.94;10498077;28;20059;-71
2020/12/04 10:28:14;;;;;;;11.35;7.15;;;;;;;4.76;100.00;97732.81;10497701;28;20472;-71
2020/12/04 10:33:15;;;;;;;12.75;7.75;;;;;;;4.85;100.00;97726.94;10497101;28;20059;-71
2020/12/04 10:38:16;;;;;;;9.23;4.45;;;;;;;5.00;100.00;97712.84;10499583;28;20044;-71
2020/12/04 10:43:17;;;;;;;8.35;3.67;;;;;;;4.93;100.00;97703.03;10505264;28;20075;-71
2020/12/04 10:48:18;;;;;;;7.05;3.80;;;;;;;4.99;100.00;97690.44;10496953;28;20047;-71
2020/12/04 10:53:22;;;;;;;8.50;4.10;;;;;;;5.13;100.00;97713.56;10496612;28;20114;-71
2020/12/04 10:58:23;;;;;;;7.20;3.13;;;;;;;5.16;100.00;97749.66;10496473;28;20048;-71
2020/12/04 11:08:25;;;;;;;8.23;3.40;;;;;;;5.31;100.00;97757.22;10496333;28;20045;-71
2020/12/04 11:13:26;;;;;;;6.10;2.42;;;;;;;5.39;100.00;97752.25;10518199;28;20048;-71
2020/12/04 11:18:27;;;;;;;4.53;2.30;;;;;;;5.48;100.00;97756.78;10537670;28;20048;-71
2020/12/04 11:23:28;;;;;;;6.50;3.33;;;;;;;5.59;100.00;97736.00;10537668;28;20044;-71
2020/12/04 11:28:28;;;;;;;6.03;3.05;;;;;;;5.66;100.00;97726.81;10537365;28;20044;-71
2020/12/04 11:33:29;;;;;;;6.30;2.63;;;;;;;5.67;100.00;97725.88;10536465;28;20095;-71
2020/12/04 11:38:30;;;;;;;5.13;2.45;;;;;;;5.72;100.00;97715.97;10537374;28;20089;-71
2020/12/04 11:43:31;;;;;;;6.07;3.60;;;;;;;5.81;100.00;97712.66;10524342;28;20448;-70
2020/12/04 11:48:33;;;;;;;5.53;2.63;;;;;;;5.73;100.00;97709.00;10494871;28;20115;-70
2020/12/04 11:53:34;;;;;;;5.50;2.00;;;;;;;5.63;100.00;97706.31;10494680;28;20048;-69
2020/12/04 11:58:35;;;;;;;4.28;1.70;;;;;;;5.56;100.00;97707.72;10494077;28;20072;-69
2020/12/04 12:03:35;;;;;;;4.53;2.22;;;;;;;5.53;100.00;97719.16;10475860;28;20466;-69
2020/12/04 12:08:36;;;;;;;7.78;2.95;;;;;;;5.55;100.00;97713.84;10532331;28;20055;-69
2020/12/04 12:13:37;;;;;;;4.68;2.08;;;;;;;5.48;100.00;97721.28;10511893;28;20143;-70
2020/12/04 12:18:40;;;;;;;4.95;2.08;;;;;;;5.54;100.00;97731.16;10493395;28;20052;-69
2020/12/04 12:23:41;;;;;;;5.35;2.50;;;;;;;5.57;100.00;97740.50;10493303;28;20052;-69
2020/12/04 12:28:42;;;;;;;7.22;3.25;;;;;;;5.69;100.00;97743.94;10492866;28;20056;-70
2020/12/04 12:33:48;;;;;;;6.05;3.30;;;;;;;5.69;100.00;97738.75;10510632;28;20496;-71
2020/12/04 12:38:49;;;;;;;8.32;3.17;;;;;;;5.68;100.00;97737.09;10534390;28;20098;-70
2020/12/04 12:43:50;;;;;;;10.13;5.30;;;;;;;5.67;100.00;97745.81;10533989;28;20114;-70
2020/12/04 12:48:51;;;;;;;7.63;4.30;;;;;;;5.58;100.00;97750.78;10534031;28;20048;-72
2020/12/04 12:53:52;;;;;;;8.85;3.88;;;;;;;5.59;100.00;97755.00;10516510;28;20552;-72
2020/12/04 12:58:56;;;;;;;12.65;4.00;;;;;;;5.61;100.00;97734.13;10526018;28;20040;-72
2020/12/04 13:03:57;;;;;;;9.70;4.97;;;;;;;5.62;100.00;97748.75;10504608;28;20048;-71
2020/12/04 13:08:58;;;;;;;9.27;4.70;;;;;;;5.61;100.00;97734.13;10532940;28;20052;-72
2020/12/04 13:13:59;;;;;;;8.10;4.15;;;;;;;5.63;100.00;97741.81;10507020;28;20101;-71
2020/12/04 13:18:59;;;;;;;9.25;4.00;;;;;;;5.64;100.00;97741.66;10491633;28;20504;-72
2020/12/04 13:24:00;;;;;;;10.15;4.45;;;;;;;5.64;100.00;97746.84;10491540;28;20063;-72
2020/12/04 13:29:01;;;;;;;13.35;7.10;;;;;;;5.65;100.00;97740.72;10491329;28;20044;-71
2020/12/04 13:34:03;;;;;;;18.67;11.43;;;;;;;5.60;100.00;97735.06;10490134;28;20500;-72
2020/12/04 13:39:04;;;;;;;20.67;11.85;;;;;;;5.59;100.00;97743.78;10493763;28;20052;-72
2020/12/04 13:44:05;;;;;;;11.75;7.30;;;;;;;5.57;100.00;97724.94;10522295;28;20742;-71
2020/12/04 13:49:31;;;;;;;7.88;4.50;;;;;;;5.59;100.00;97736.84;10505161;28;20429;-72
2020/12/04 13:54:33;;;;;;;11.00;6.50;;;;;;;5.59;100.00;97748.97;10507831;28;20055;-72
2020/12/04 13:59:34;;;;;;;10.95;6.47;;;;;;;5.58;100.00;97752.53;10531534;28;20044;-72
2020/12/04 14:04:35;;;;;;;13.57;7.55;;;;;;;5.55;100.00;97753.59;10491617;28;20044;-73
2020/12/04 14:09:36;;;;;;;11.75;6.68;;;;;;;5.54;100.00;97761.47;10512530;28;20040;-72
2020/12/04 14:14:37;;;;;;;10.57;6.22;;;;;;;5.57;100.00;97763.84;10510368;28;20049;-72
2020/12/04 14:19:38;;;;;;;12.00;7.45;;;;;;;5.60;100.00;97767.03;10522330;28;20048;-71
2020/12/04 14:24:39;;;;;;;15.57;8.80;;;;;;;5.53;100.00;97758.09;10522961;28;20063;-71
2020/12/04 14:29:40;;;;;;;14.70;9.02;;;;;;;5.51;100.00;97766.91;10525385;28;20059;-71
2020/12/04 14:34:42;;;;;;;16.70;10.23;;;;;;;5.43;100.00;97753.72;10531336;28;20451;-71
2020/12/04 14:39:43;;;;;;;9.75;5.72;;;;;;;5.39;100.00;97747.91;10530075;28;20046;-71
2020/12/04 14:44:44;;;;;;;9.80;5.70;;;;;;;5.41;100.00;97759.00;10518891;28;20054;-71
2020/12/04 14:49:45;;;;;;;10.40;5.80;;;;;;;5.41;100.00;97756.41;10537619;28;20543;-71
2020/12/04 14:54:46;;;;;;;15.85;8.25;;;;;;;5.46;100.00;97762.06;10525387;28;20055;-71
2020/12/04 14:59:47;;;;;;;32.78;16.83;;;;;;;5.46;100.00;97767.25;10538450;28;20044;-71
2020/12/04 15:04:48;;;;;;;30.38;17.70;;;;;;;5.39;100.00;97771.25;10522413;28;20393;-71
2020/12/04 15:09:49;;;;;;;33.80;18.75;;;;;;;5.34;100.00;97780.31;10512515;28;20048;-71
2020/12/04 15:14:50;;;;;;;35.20;18.42;;;;;;;5.14;100.00;97784.38;10502871;28;20131;-71
2020/12/04 15:19:51;;;;;;;38.58;17.75;;;;;;;4.95;100.00;97781.50;10518845;28;20044;-71
2020/12/04 15:24:52;;;;;;;32.88;18.52;;;;;;;4.85;100.00;97790.88;10519547;28;20667;-71
2020/12/04 15:29:53;;;;;;;38.40;20.27;;;;;;;4.77;100.00;97794.06;10518219;28;20105;-71
2020/12/04 15:34:54;;;;;;;36.78;20.33;;;;;;;4.67;100.00;97780.91;10519814;28;20044;-72
2020/12/04 15:39:55;;;;;;;35.78;19.67;;;;;;;4.62;100.00;97801.13;10518312;28;20041;-71
2020/12/04 15:44:56;;;;;;;38.30;20.65;;;;;;;4.55;100.00;97801.69;10511333;28;20043;-71
2020/12/04 15:49:57;;;;;;;34.00;17.77;;;;;;;4.51;100.00;97813.22;10516649;28;20663;-71
2020/12/04 15:54:58;;;;;;;32.08;18.05;;;;;;;4.50;100.00;97803.78;10511655;28;20045;-69
2020/12/04 15:59:59;;;;;;;31.88;17.25;;;;;;;4.36;100.00;97817.72;10495374;28;20040;-69
2020/12/04 16:05:01;;;;;;;30.17;16.58;;;;;;;4.37;100.00;97818.56;10495081;28;20519;-70
2020/12/04 16:10:03;;;;;;;34.28;18.75;;;;;;;4.35;100.00;97825.59;10497779;28;20056;-70
2020/12/04 16:15:04;;;;;;;33.22;18.88;;;;;;;4.31;100.00;97840.53;10495386;28;20052;-70
2020/12/04 16:20:05;;;;;;;38.05;20.83;;;;;;;4.28;100.00;97836.38;10495133;28;20112;-69
2020/12/04 16:25:06;;;;;;;32.50;19.33;;;;;;;4.32;100.00;97846.53;10494660;28;20110;-70
2020/12/04 16:30:07;;;;;;;35.20;20.35;;;;;;;4.29;100.00;97852.75;10493491;28;20048;-70
2020/12/04 16:35:08;;;;;;;37.33;19.73;;;;;;;4.36;100.00;97837.63;10494799;28;20404;-69
2020/12/04 16:40:09;;;;;;;36.33;20.15;;;;;;;4.26;100.00;97835.69;10494214;28;20045;-70
2020/12/04 16:45:10;;;;;;;36.33;20.70;;;;;;;4.25;100.00;97821.06;10510411;28;20052;-69
2020/12/04 16:50:11;;;;;;;35.55;20.90;;;;;;;4.16;100.00;97824.31;10513790;28;20507;-70
2020/12/04 16:55:13;;;;;;;42.55;23.08;;;;;;;4.11;100.00;97828.97;10525485;28;20110;-70
2020/12/04 17:00:14;;;;;;;38.97;20.13;;;;;;;4.08;100.00;97842.09;10492170;28;20044;-70
2020/12/04 17:05:15;;;;;;;36.70;21.00;;;;;;;3.98;100.00;97848.84;10493611;28;20049;-69
2020/12/04 17:10:17;;;;;;;47.45;25.00;;;;;;;3.99;100.00;97847.09;10492804;28;20447;-69
2020/12/04 17:15:18;;;;;;;33.47;19.88;;;;;;;3.83;100.00;97836.97;10493583;28;20048;-69
2020/12/04 17:20:19;;;;;;;36.92;20.88;;;;;;;3.80;100.00;97834.59;10526423;28;20048;-69
2020/12/04 17:25:19;;;;;;;41.55;23.85;;;;;;;3.84;100.00;97828.28;10526301;28;20416;-69
2020/12/04 17:30:20;;;;;;;65.28;35.75;;;;;;;3.74;100.00;97822.06;10517318;28;20055;-69
2020/12/04 17:35:21;;;;;;;55.65;33.08;;;;;;;3.62;100.00;97833.22;10506588;28;20048;-69
2020/12/04 17:40:22;;;;;;;50.65;27.25;;;;;;;3.57;100.00;97824.94;10529858;28;20070;-69
2020/12/04 17:45:24;;;;;;;47.28;25.45;;;;;;;3.48;100.00;97838.50;10525929;28;20048;-69
2020/12/04 17:50:25;;;;;;;38.47;21.92;;;;;;;3.32;100.00;97841.28;10517599;28;20049;-69
2020/12/04 17:55:26;;;;;;;41.75;21.77;;;;;;;3.28;100.00;97838.06;10524699;28;20479;-69
2020/12/04 18:00:26;;;;;;;47.20;25.70;;;;;;;3.22;100.00;97853.97;10531009;28;20047;-69
2020/12/04 18:05:27;;;;;;;45.72;24.35;;;;;;;3.28;100.00;97848.41;10533750;28;20052;-69
2020/12/04 18:10:29;;;;;;;47.08;25.75;;;;;;;3.29;100.00;97852.66;10530423;28;20048;-69
2020/12/04 18:15:30;;;;;;;75.10;40.05;;;;;;;3.29;100.00;97869.91;10530103;28;20043;-69
2020/12/04 18:20:31;;;;;;;68.78;34.85;;;;;;;3.28;100.00;97866.50;10528655;28;20084;-69
2020/12/04 18:25:32;;;;;;;54.55;28.38;;;;;;;3.22;100.00;97853.97;10532910;28;20777;-69
2020/12/04 18:30:33;;;;;;;52.05;28.25;;;;;;;3.18;100.00;97851.69;10523077;28;20041;-69
2020/12/04 18:35:39;;;;;;;51.70;27.00;;;;;;;3.12;100.00;97839.16;10537688;28;20048;-69
2020/12/04 18:40:39;;;;;;;48.03;25.73;;;;;;;3.04;100.00;97834.50;10532350;28;20507;-69
2020/12/04 18:45:40;;;;;;;40.83;23.15;;;;;;;3.04;100.00;97870.69;10531999;28;20059;-69
2020/12/04 18:50:41;;;;;;;48.90;25.65;;;;;;;3.10;100.00;97909.03;10532649;28;20047;-69
2020/12/04 18:55:42;;;;;;;49.58;26.70;;;;;;;3.21;100.00;97934.19;10528292;28;20052;-68
2020/12/04 19:00:43;;;;;;;51.88;27.95;;;;;;;3.27;100.00;97944.97;10526236;28;20044;-69
2020/12/04 19:05:44;;;;;;;53.67;28.25;;;;;;;3.26;100.00;97935.56;10530206;28;20066;-69
2020/12/04 19:10:45;;;;;;;52.15;27.00;;;;;;;3.28;100.00;97927.72;10526025;28;20048;-69
2020/12/04 19:15:46;;;;;;;45.25;25.27;;;;;;;3.29;100.00;97926.78;10530982;28;20048;-69
2020/12/04 19:20:48;;;;;;;54.33;30.08;;;;;;;3.32;100.00;97916.22;10539424;28;20445;-69
2020/12/04 19:25:49;;;;;;;64.45;32.40;;;;;;;3.24;100.00;97893.47;10539110;28;20073;-69
2020/12/04 19:30:50;;;;;;;53.10;26.83;;;;;;;3.21;100.00;97880.75;10538031;28;20048;-69
2020/12/04 19:35:50;;;;;;;67.78;36.55;;;;;;;3.21;100.00;97875.56;10539188;28;20059;-69
2020/12/04 19:40:51;;;;;;;55.20;28.58;;;;;;;3.12;100.00;97878.75;10538251;28;20110;-69
2020/12/04 19:45:54;;;;;;;56.08;31.50;;;;;;;3.19;100.00;97856.75;10538746;28;20052;-69
2020/12/04 19:50:55;;;;;;;56.38;30.77;;;;;;;3.13;100.00;97869.25;10519853;28;20059;-69
2020/12/04 19:55:58;;;;;;;47.63;27.30;;;;;;;3.13;99.08;97864.91;10521654;28;20420;-69
2020/12/04 20:01:00;;;;;;;47.15;25.48;;;;;;;3.15;99.90;97899.22;10494891;28;20046;-69
2020/12/04 20:06:03;;;;;;;51.53;27.55;;;;;;;3.25;100.00;97920.97;10495882;28;20500;-69
2020/12/04 20:11:04;;;;;;;53.45;27.83;;;;;;;3.37;99.67;97904.66;10500905;28;20048;-69
2020/12/04 20:16:06;;;;;;;47.30;26.58;;;;;;;3.31;95.86;97917.16;10537305;28;20052;-68
2020/12/04 20:21:07;;;;;;;47.92;27.20;;;;;;;3.27;95.90;97882.94;10515470;28;20093;-69
2020/12/04 20:26:08;;;;;;;58.22;29.90;;;;;;;3.12;99.21;97878.75;10500247;28;20055;-69
2020/12/04 20:31:09;;;;;;;56.38;30.55;;;;;;;3.09;100.00;97837.63;10524486;28;20052;-68
2020/12/04 20:36:10;;;;;;;62.25;29.83;;;;;;;3.03;99.16;97861.25;10494927;28;20056;-68
2020/12/04 20:41:11;;;;;;;58.30;28.10;;;;;;;3.03;100.00;97894.84;10511845;28;20052;-68
2020/12/04 20:46:15;;;;;;;52.30;26.77;;;;;;;3.07;100.00;97942.00;10497180;28;20557;-68
2020/12/04 20:51:16;;;;;;;50.90;25.20;;;;;;;3.04;99.88;97953.38;10493809;28;20051;-68
2020/12/04 20:56:17;;;;;;;47.40;25.02;;;;;;;3.12;100.00;97927.84;10512899;28;20131;-68
2020/12/04 21:01:18;;;;;;;45.95;25.48;;;;;;;3.13;99.95;97932.09;10534746;28;20044;-68
2020/12/04 21:06:19;;;;;;;40.75;23.85;;;;;;;3.16;99.08;97913.81;10535021;28;20079;-68
2020/12/04 21:11:31;;;;;;;51.88;27.20;;;;;;;3.26;96.91;97899.38;10535145;28;20500;-68
2020/12/04 21:16:32;;;;;;;58.88;31.05;;;;;;;3.15;95.78;97927.66;10534838;28;20109;-68
2020/12/04 21:21:35;;;;;;;56.08;32.22;;;;;;;3.14;96.71;97933.75;10534922;28;20044;-68
2020/12/04 21:26:36;;;;;;;46.95;24.60;;;;;;;2.90;97.89;97924.97;10534822;28;20059;-68
2020/12/04 21:31:40;;;;;;;52.60;27.52;;;;;;;2.95;97.66;97918.59;10532105;28;20044;-68
2020/12/04 21:36:41;;;;;;;53.83;27.95;;;;;;;2.85;100.00;97921.84;10534886;28;20459;-68
2020/12/04 21:41:44;;;;;;;51.05;25.45;;;;;;;2.98;97.60;97891.75;10531472;28;20044;-68
2020/12/04 21:46:45;;;;;;;49.53;25.67;;;;;;;2.89;95.13;97882.81;10512317;28;20105;-68
2020/12/04 21:51:47;;;;;;;50.92;26.40;;;;;;;2.82;96.25;97886.72;10497078;28;20114;-68
2020/12/04 21:56:48;;;;;;;49.38;26.30;;;;;;;2.90;96.60;97899.13;10515422;28;20537;-68
2020/12/04 22:01:49;;;;;;;50.85;26.15;;;;;;;3.00;94.57;97885.53;10533157;28;20059;-67
2020/12/04 22:06:50;;;;;;;53.42;27.77;;;;;;;2.90;96.14;97870.72;10533882;28;20052;-68
2020/12/04 22:11:54;;;;;;;50.58;26.20;;;;;;;2.89;99.35;97894.91;10511158;28;20110;-68
2020/12/04 22:16:55;;;;;;;48.45;25.08;;;;;;;2.85;98.90;97908.91;10512732;28;20040;-68
2020/12/04 22:21:56;;;;;;;45.95;23.98;;;;;;;2.73;98.58;97922.63;10512992;28;20109;-68
2020/12/04 22:26:57;;;;;;;46.90;23.85;;;;;;;2.84;98.58;97938.28;10510618;28;20067;-68
2020/12/04 22:32:00;;;;;;;49.50;24.38;;;;;;;2.95;99.50;97936.66;10511772;28;20098;-68
2020/12/04 22:37:06;;;;;;;48.42;24.35;;;;;;;2.92;99.13;97943.78;10532315;28;20060;-68
2020/12/04 22:42:07;;;;;;;49.05;26.33;;;;;;;2.78;100.00;97956.75;10531560;28;20048;-68
2020/12/04 22:47:08;;;;;;;53.78;25.70;;;;;;;2.73;100.00;97969.09;10533443;28;20464;-68
2020/12/04 22:52:09;;;;;;;56.60;27.08;;;;;;;2.73;100.00;97976.84;10502560;28;20049;-69
2020/12/04 22:57:10;;;;;;;59.90;28.88;;;;;;;2.81;99.27;97984.94;10525098;28;20108;-69
2020/12/04 23:02:11;;;;;;;51.85;26.83;;;;;;;2.81;97.52;97985.78;10523978;28;20062;-70
2020/12/04 23:07:12;;;;;;;52.10;26.42;;;;;;;2.85;97.72;97978.66;10517889;28;20155;-70
2020/12/04 23:12:13;;;;;;;50.45;26.25;;;;;;;2.82;97.88;97956.44;10517491;28;20051;-72